sensor_id;sensor_type;location;lat;lon;timestamp;temperature;humidity
24730;DHT22;12832;52.392;13.066;2022-09-21T00:00:07;26.60;41.80
24730;DHT22;12832;52.392;13.066;2022-09-21T00:02:38;26.60;41.80
24730;DHT22;12832;52.392;13.066;2022-09-21T00:05:07;26.60;41.80
24730;DHT22;12832;52.392;13.066;2022-09-21T00:07:39;26.60;41.80
24730;DHT22;12832;52.392;13.066;2022-09-21T00:10:10;26.60;41.80
24730;DHT22;12832;52.392;13.066;2022-09-21T00:12:42;26.60;41.70
24730;DHT22;12832;52.392;13.066;2022-09-21T00:15:16;26.60;41.70
24730;DHT22;12832;52.392;13.066;2022-09-21T00:17:47;26.60;41.80
24730;DHT22;12832;52.392;13.066;2022-09-21T00:20:17;26.60;41.80
24730;DHT22;12832;52.392;13.066;2022-09-21T00:22:47;26.60;41.70
24730;DHT22;12832;52.392;13.066;2022-09-21T00:25:17;26.60;41.70
24730;DHT22;12832;52.392;13.066;2022-09-21T00:27:48;26.60;41.80
24730;DHT22;12832;52.392;13.066;2022-09-21T00:30:19;26.60;41.90
24730;DHT22;12832;52.392;13.066;2022-09-21T00:32:56;26.60;41.80
24730;DHT22;12832;52.392;13.066;2022-09-21T00:35:23;26.70;41.80
24730;DHT22;12832;52.392;13.066;2022-09-21T00:37:58;26.60;41.80
24730;DHT22;12832;52.392;13.066;2022-09-21T00:40:32;26.70;41.80
24730;DHT22;12832;52.392;13.066;2022-09-21T00:43:15;26.70;41.80
24730;DHT22;12832;52.392;13.066;2022-09-21T00:45:46;26.60;41.70
24730;DHT22;12832;52.392;13.066;2022-09-21T00:48:16;26.60;41.70
24730;DHT22;12832;52.392;13.066;2022-09-21T00:50:53;26.60;41.80
24730;DHT22;12832;52.392;13.066;2022-09-21T00:53:25;26.60;42.40
24730;DHT22;12832;52.392;13.066;2022-09-21T00:55:59;26.60;41.70
24730;DHT22;12832;52.392;13.066;2022-09-21T00:58:44;26.60;41.70
24730;DHT22;12832;52.392;13.066;2022-09-21T01:01:19;26.60;41.80
24730;DHT22;12832;52.392;13.066;2022-09-21T01:03:56;26.60;41.80
24730;DHT22;12832;52.392;13.066;2022-09-21T01:06:28;26.60;41.90
24730;DHT22;12832;52.392;13.066;2022-09-21T01:09:04;26.60;41.80
24730;DHT22;12832;52.392;13.066;2022-09-21T01:19:51;26.70;41.80
24730;DHT22;12832;52.392;13.066;2022-09-21T01:31:02;26.60;42.50
24730;DHT22;12832;52.392;13.066;2022-09-21T01:33:50;26.60;41.70
24730;DHT22;12832;52.392;13.066;2022-09-21T01:36:27;26.60;41.80
24730;DHT22;12832;52.392;13.066;2022-09-21T01:38:59;26.70;41.80
24730;DHT22;12832;52.392;13.066;2022-09-21T01:41:31;26.60;42.40
24730;DHT22;12832;52.392;13.066;2022-09-21T01:44:21;26.60;41.70
24730;DHT22;12832;52.392;13.066;2022-09-21T01:46:53;26.70;41.80
24730;DHT22;12832;52.392;13.066;2022-09-21T01:49:31;26.60;41.70
24730;DHT22;12832;52.392;13.066;2022-09-21T01:52:19;26.70;41.80
24730;DHT22;12832;52.392;13.066;2022-09-21T01:55:04;26.70;41.80
24730;DHT22;12832;52.392;13.066;2022-09-21T01:57:45;26.70;41.80
24730;DHT22;12832;52.392;13.066;2022-09-21T02:00:16;26.60;41.70
24730;DHT22;12832;52.392;13.066;2022-09-21T02:02:52;26.60;42.40
24730;DHT22;12832;52.392;13.066;2022-09-21T02:05:29;26.60;41.80
24730;DHT22;12832;52.392;13.066;2022-09-21T02:08:02;26.60;41.70
24730;DHT22;12832;52.392;13.066;2022-09-21T02:10:43;26.60;41.70
24730;DHT22;12832;52.392;13.066;2022-09-21T02:13:15;26.70;41.80
24730;DHT22;12832;52.392;13.066;2022-09-21T02:15:51;26.60;41.70
24730;DHT22;12832;52.392;13.066;2022-09-21T02:21:32;26.60;41.70
24730;DHT22;12832;52.392;13.066;2022-09-21T02:24:42;26.70;41.80
24730;DHT22;12832;52.392;13.066;2022-09-21T02:30:25;26.60;41.80
24730;DHT22;12832;52.392;13.066;2022-09-21T02:33:11;26.60;41.80
24730;DHT22;12832;52.392;13.066;2022-09-21T02:35:50;26.70;41.90
24730;DHT22;12832;52.392;13.066;2022-09-21T02:38:49;26.60;41.80
24730;DHT22;12832;52.392;13.066;2022-09-21T02:41:36;26.60;41.70
24730;DHT22;12832;52.392;13.066;2022-09-21T02:44:26;26.60;41.80
24730;DHT22;12832;52.392;13.066;2022-09-21T02:47:25;26.70;41.80
24730;DHT22;12832;52.392;13.066;2022-09-21T02:50:05;26.60;41.80
24730;DHT22;12832;52.392;13.066;2022-09-21T02:52:46;26.70;41.80
24730;DHT22;12832;52.392;13.066;2022-09-21T02:55:17;26.60;41.80
24730;DHT22;12832;52.392;13.066;2022-09-21T02:57:47;26.60;41.80
24730;DHT22;12832;52.392;13.066;2022-09-21T03:00:19;26.60;41.80
24730;DHT22;12832;52.392;13.066;2022-09-21T03:02:51;26.60;41.80
24730;DHT22;12832;52.392;13.066;2022-09-21T03:05:22;26.60;41.80
24730;DHT22;12832;52.392;13.066;2022-09-21T03:07:55;26.70;41.80
24730;DHT22;12832;52.392;13.066;2022-09-21T03:10:25;26.60;41.80
24730;DHT22;12832;52.392;13.066;2022-09-21T03:12:57;26.70;41.80
24730;DHT22;12832;52.392;13.066;2022-09-21T03:15:34;26.70;41.80
24730;DHT22;12832;52.392;13.066;2022-09-21T03:18:09;26.60;41.80
24730;DHT22;12832;52.392;13.066;2022-09-21T03:20:46;26.60;41.80
24730;DHT22;12832;52.392;13.066;2022-09-21T03:23:15;26.70;41.80
24730;DHT22;12832;52.392;13.066;2022-09-21T03:25:44;26.70;41.90
24730;DHT22;12832;52.392;13.066;2022-09-21T03:28:15;26.70;41.80
24730;DHT22;12832;52.392;13.066;2022-09-21T03:30:51;26.70;41.80
24730;DHT22;12832;52.392;13.066;2022-09-21T03:33:21;26.70;41.80
24730;DHT22;12832;52.392;13.066;2022-09-21T03:35:55;26.70;41.80
24730;DHT22;12832;52.392;13.066;2022-09-21T03:38:24;26.70;41.80
24730;DHT22;12832;52.392;13.066;2022-09-21T03:40:54;26.70;41.90
24730;DHT22;12832;52.392;13.066;2022-09-21T03:43:26;26.70;41.80
24730;DHT22;12832;52.392;13.066;2022-09-21T03:45:58;26.70;41.80
24730;DHT22;12832;52.392;13.066;2022-09-21T03:48:30;26.70;41.80
24730;DHT22;12832;52.392;13.066;2022-09-21T03:51:00;26.70;41.80
24730;DHT22;12832;52.392;13.066;2022-09-21T03:53:32;26.70;41.80
24730;DHT22;12832;52.392;13.066;2022-09-21T03:56:03;26.70;41.80
24730;DHT22;12832;52.392;13.066;2022-09-21T03:58:35;26.70;41.80
24730;DHT22;12832;52.392;13.066;2022-09-21T04:01:06;26.60;41.80
24730;DHT22;12832;52.392;13.066;2022-09-21T04:03:40;26.70;41.80
24730;DHT22;12832;52.392;13.066;2022-09-21T04:06:14;26.70;41.80
24730;DHT22;12832;52.392;13.066;2022-09-21T04:08:52;26.70;41.80
24730;DHT22;12832;52.392;13.066;2022-09-21T04:11:22;26.70;41.70
24730;DHT22;12832;52.392;13.066;2022-09-21T04:13:54;26.70;41.70
24730;DHT22;12832;52.392;13.066;2022-09-21T04:16:25;26.70;41.80
24730;DHT22;12832;52.392;13.066;2022-09-21T04:18:55;26.70;41.70
24730;DHT22;12832;52.392;13.066;2022-09-21T04:21:24;26.70;41.70
24730;DHT22;12832;52.392;13.066;2022-09-21T04:23:57;26.70;41.70
24730;DHT22;12832;52.392;13.066;2022-09-21T04:26:33;26.70;41.80
24730;DHT22;12832;52.392;13.066;2022-09-21T04:29:10;26.70;41.80
24730;DHT22;12832;52.392;13.066;2022-09-21T04:31:43;26.70;41.70
24730;DHT22;12832;52.392;13.066;2022-09-21T04:34:12;26.70;41.70
24730;DHT22;12832;52.392;13.066;2022-09-21T04:36:41;26.70;41.70
24730;DHT22;12832;52.392;13.066;2022-09-21T04:39:10;26.70;41.80
24730;DHT22;12832;52.392;13.066;2022-09-21T04:41:37;26.70;41.70
24730;DHT22;12832;52.392;13.066;2022-09-21T04:44:06;26.70;41.70
24730;DHT22;12832;52.392;13.066;2022-09-21T04:46:33;26.70;41.70
24730;DHT22;12832;52.392;13.066;2022-09-21T04:49:02;26.70;41.70
24730;DHT22;12832;52.392;13.066;2022-09-21T04:51:33;26.70;41.80
24730;DHT22;12832;52.392;13.066;2022-09-21T04:54:03;26.70;41.70
24730;DHT22;12832;52.392;13.066;2022-09-21T04:56:31;26.70;42.40
24730;DHT22;12832;52.392;13.066;2022-09-21T04:59:06;26.70;41.70
24730;DHT22;12832;52.392;13.066;2022-09-21T05:01:34;26.70;41.80
24730;DHT22;12832;52.392;13.066;2022-09-21T05:04:02;26.70;41.80
24730;DHT22;12832;52.392;13.066;2022-09-21T05:06:32;26.70;41.80
24730;DHT22;12832;52.392;13.066;2022-09-21T05:09:02;26.70;41.60
24730;DHT22;12832;52.392;13.066;2022-09-21T05:11:50;26.70;41.40
24730;DHT22;12832;52.392;13.066;2022-09-21T05:14:24;26.60;41.20
24730;DHT22;12832;52.392;13.066;2022-09-21T05:17:05;26.60;41.10
24730;DHT22;12832;52.392;13.066;2022-09-21T05:19:35;26.60;41.00
24730;DHT22;12832;52.392;13.066;2022-09-21T05:22:05;26.50;40.90
24730;DHT22;12832;52.392;13.066;2022-09-21T05:24:36;26.50;40.90
24730;DHT22;12832;52.392;13.066;2022-09-21T05:27:04;26.40;40.80
24730;DHT22;12832;52.392;13.066;2022-09-21T05:29:34;26.50;40.90
24730;DHT22;12832;52.392;13.066;2022-09-21T05:32:24;26.40;40.90
24730;DHT22;12832;52.392;13.066;2022-09-21T05:35:21;26.40;40.70
24730;DHT22;12832;52.392;13.066;2022-09-21T05:40:35;26.40;40.70
24730;DHT22;12832;52.392;13.066;2022-09-21T05:43:09;26.40;40.80
24730;DHT22;12832;52.392;13.066;2022-09-21T05:45:45;26.40;40.80
24730;DHT22;12832;52.392;13.066;2022-09-21T05:48:25;26.30;40.90
24730;DHT22;12832;52.392;13.066;2022-09-21T05:51:03;26.30;40.90
24730;DHT22;12832;52.392;13.066;2022-09-21T05:56:48;26.30;40.80
24730;DHT22;12832;52.392;13.066;2022-09-21T06:05:16;26.20;40.90
24730;DHT22;12832;52.392;13.066;2022-09-21T06:07:54;26.30;40.90
24730;DHT22;12832;52.392;13.066;2022-09-21T06:10:30;26.20;40.80
24730;DHT22;12832;52.392;13.066;2022-09-21T06:13:07;26.20;40.80
24730;DHT22;12832;52.392;13.066;2022-09-21T06:15:37;26.20;40.80
24730;DHT22;12832;52.392;13.066;2022-09-21T06:18:16;26.20;41.60
24730;DHT22;12832;52.392;13.066;2022-09-21T06:20:45;26.20;40.90
24730;DHT22;12832;52.392;13.066;2022-09-21T06:23:18;26.20;40.90
24730;DHT22;12832;52.392;13.066;2022-09-21T06:25:51;26.20;40.70
24730;DHT22;12832;52.392;13.066;2022-09-21T06:28:25;26.20;40.80
24730;DHT22;12832;52.392;13.066;2022-09-21T06:30:56;26.20;40.80
24730;DHT22;12832;52.392;13.066;2022-09-21T06:33:50;26.20;40.60
24730;DHT22;12832;52.392;13.066;2022-09-21T06:36:21;26.20;40.60
24730;DHT22;12832;52.392;13.066;2022-09-21T06:38:54;26.20;40.50
24730;DHT22;12832;52.392;13.066;2022-09-21T06:41:25;26.20;40.50
24730;DHT22;12832;52.392;13.066;2022-09-21T06:43:57;26.10;40.40
24730;DHT22;12832;52.392;13.066;2022-09-21T06:46:25;26.20;40.50
24730;DHT22;12832;52.392;13.066;2022-09-21T06:48:53;26.20;40.50
24730;DHT22;12832;52.392;13.066;2022-09-21T06:51:24;26.20;40.50
24730;DHT22;12832;52.392;13.066;2022-09-21T06:53:55;26.20;40.50
24730;DHT22;12832;52.392;13.066;2022-09-21T06:56:26;26.20;40.60
24730;DHT22;12832;52.392;13.066;2022-09-21T06:58:54;26.20;40.40
24730;DHT22;12832;52.392;13.066;2022-09-21T07:01:33;26.10;40.40
24730;DHT22;12832;52.392;13.066;2022-09-21T07:04:07;26.10;40.40
24730;DHT22;12832;52.392;13.066;2022-09-21T07:06:39;26.10;40.50
24730;DHT22;12832;52.392;13.066;2022-09-21T07:09:08;26.10;40.50
24730;DHT22;12832;52.392;13.066;2022-09-21T07:11:59;26.10;40.40
24730;DHT22;12832;52.392;13.066;2022-09-21T07:14:30;26.10;40.50
24730;DHT22;12832;52.392;13.066;2022-09-21T07:17:08;26.10;40.40
24730;DHT22;12832;52.392;13.066;2022-09-21T07:19:44;26.10;41.30
24730;DHT22;12832;52.392;13.066;2022-09-21T07:22:16;26.10;40.60
24730;DHT22;12832;52.392;13.066;2022-09-21T07:24:43;26.10;40.60
24730;DHT22;12832;52.392;13.066;2022-09-21T07:27:11;26.00;40.50
24730;DHT22;12832;52.392;13.066;2022-09-21T07:29:50;26.10;40.60
24730;DHT22;12832;52.392;13.066;2022-09-21T07:32:26;26.10;40.60
24730;DHT22;12832;52.392;13.066;2022-09-21T07:35:13;26.10;40.60
24730;DHT22;12832;52.392;13.066;2022-09-21T07:37:44;26.10;40.60
24730;DHT22;12832;52.392;13.066;2022-09-21T07:40:13;26.10;40.60
24730;DHT22;12832;52.392;13.066;2022-09-21T07:42:43;26.10;40.60
24730;DHT22;12832;52.392;13.066;2022-09-21T07:45:19;26.10;40.60
24730;DHT22;12832;52.392;13.066;2022-09-21T07:47:53;26.10;40.60
24730;DHT22;12832;52.392;13.066;2022-09-21T07:50:28;26.10;40.70
24730;DHT22;12832;52.392;13.066;2022-09-21T07:53:03;26.10;41.70
24730;DHT22;12832;52.392;13.066;2022-09-21T07:55:38;26.10;41.20
24730;DHT22;12832;52.392;13.066;2022-09-21T07:58:11;26.10;41.20
24730;DHT22;12832;52.392;13.066;2022-09-21T08:01:04;26.00;40.90
24730;DHT22;12832;52.392;13.066;2022-09-21T08:03:38;26.00;40.90
24730;DHT22;12832;52.392;13.066;2022-09-21T08:06:09;26.00;40.80
24730;DHT22;12832;52.392;13.066;2022-09-21T08:08:49;26.00;40.80
24730;DHT22;12832;52.392;13.066;2022-09-21T08:11:27;26.00;40.80
24730;DHT22;12832;52.392;13.066;2022-09-21T08:14:00;26.00;40.90
24730;DHT22;12832;52.392;13.066;2022-09-21T08:16:29;26.00;40.80
24730;DHT22;12832;52.392;13.066;2022-09-21T08:18:56;26.10;40.90
24730;DHT22;12832;52.392;13.066;2022-09-21T08:21:31;26.00;40.80
24730;DHT22;12832;52.392;13.066;2022-09-21T08:24:05;26.00;40.90
24730;DHT22;12832;52.392;13.066;2022-09-21T08:26:48;26.00;40.90
24730;DHT22;12832;52.392;13.066;2022-09-21T08:29:24;26.00;41.20
24730;DHT22;12832;52.392;13.066;2022-09-21T08:31:55;26.00;41.10
24730;DHT22;12832;52.392;13.066;2022-09-21T08:34:24;26.00;41.10
24730;DHT22;12832;52.392;13.066;2022-09-21T08:36:58;26.00;41.10
24730;DHT22;12832;52.392;13.066;2022-09-21T08:39:28;26.00;41.10
24730;DHT22;12832;52.392;13.066;2022-09-21T08:42:13;26.00;41.20
24730;DHT22;12832;52.392;13.066;2022-09-21T08:45:02;26.00;41.10
24730;DHT22;12832;52.392;13.066;2022-09-21T08:47:50;26.00;41.20
24730;DHT22;12832;52.392;13.066;2022-09-21T08:50:36;26.00;41.20
24730;DHT22;12832;52.392;13.066;2022-09-21T08:53:21;26.00;41.30
24730;DHT22;12832;52.392;13.066;2022-09-21T08:55:56;26.00;41.30
24730;DHT22;12832;52.392;13.066;2022-09-21T08:58:24;26.00;41.30
24730;DHT22;12832;52.392;13.066;2022-09-21T09:07:30;26.00;41.40
24730;DHT22;12832;52.392;13.066;2022-09-21T09:16:29;26.00;41.70
24730;DHT22;12832;52.392;13.066;2022-09-21T09:19:35;26.00;41.70
24730;DHT22;12832;52.392;13.066;2022-09-21T09:22:03;26.00;41.70
24730;DHT22;12832;52.392;13.066;2022-09-21T09:24:48;26.00;41.70
24730;DHT22;12832;52.392;13.066;2022-09-21T09:27:32;26.00;41.80
24730;DHT22;12832;52.392;13.066;2022-09-21T09:30:24;26.00;41.90
24730;DHT22;12832;52.392;13.066;2022-09-21T09:36:19;26.00;42.10
24730;DHT22;12832;52.392;13.066;2022-09-21T09:39:14;26.00;42.20
24730;DHT22;12832;52.392;13.066;2022-09-21T09:42:17;26.00;42.20
24730;DHT22;12832;52.392;13.066;2022-09-21T09:50:17;26.00;42.20
24730;DHT22;12832;52.392;13.066;2022-09-21T09:52:50;26.00;42.20
24730;DHT22;12832;52.392;13.066;2022-09-21T09:55:41;26.00;42.20
24730;DHT22;12832;52.392;13.066;2022-09-21T09:58:21;26.00;42.20
24730;DHT22;12832;52.392;13.066;2022-09-21T10:00:54;26.00;42.20
24730;DHT22;12832;52.392;13.066;2022-09-21T10:03:29;26.00;42.20
24730;DHT22;12832;52.392;13.066;2022-09-21T10:06:09;26.00;42.20
24730;DHT22;12832;52.392;13.066;2022-09-21T10:08:44;26.00;42.90
24730;DHT22;12832;52.392;13.066;2022-09-21T10:11:17;26.00;42.20
24730;DHT22;12832;52.392;13.066;2022-09-21T10:13:53;26.00;42.40
24730;DHT22;12832;52.392;13.066;2022-09-21T10:16:23;26.00;42.30
24730;DHT22;12832;52.392;13.066;2022-09-21T10:18:58;26.00;42.30
24730;DHT22;12832;52.392;13.066;2022-09-21T10:21:40;26.00;42.30
24730;DHT22;12832;52.392;13.066;2022-09-21T10:24:25;26.00;42.40
24730;DHT22;12832;52.392;13.066;2022-09-21T10:27:12;26.00;42.30
24730;DHT22;12832;52.392;13.066;2022-09-21T10:29:57;26.00;42.30
24730;DHT22;12832;52.392;13.066;2022-09-21T10:32:39;26.00;42.40
24730;DHT22;12832;52.392;13.066;2022-09-21T10:35:26;26.00;42.40
24730;DHT22;12832;52.392;13.066;2022-09-21T10:38:17;26.00;42.40
24730;DHT22;12832;52.392;13.066;2022-09-21T10:40:49;26.00;42.40
24730;DHT22;12832;52.392;13.066;2022-09-21T10:43:34;26.00;43.10
24730;DHT22;12832;52.392;13.066;2022-09-21T10:46:10;26.00;42.60
24730;DHT22;12832;52.392;13.066;2022-09-21T10:48:43;26.00;42.50
24730;DHT22;12832;52.392;13.066;2022-09-21T10:51:28;26.00;42.50
24730;DHT22;12832;52.392;13.066;2022-09-21T10:54:07;26.00;42.50
24730;DHT22;12832;52.392;13.066;2022-09-21T10:56:51;26.00;42.60
24730;DHT22;12832;52.392;13.066;2022-09-21T10:59:29;26.00;43.20
24730;DHT22;12832;52.392;13.066;2022-09-21T11:02:02;26.00;42.70
24730;DHT22;12832;52.392;13.066;2022-09-21T11:05:00;26.00;42.60
24730;DHT22;12832;52.392;13.066;2022-09-21T11:07:46;26.00;42.70
24730;DHT22;12832;52.392;13.066;2022-09-21T11:10:27;26.00;42.70
24730;DHT22;12832;52.392;13.066;2022-09-21T11:19:09;26.00;42.70
24730;DHT22;12832;52.392;13.066;2022-09-21T11:22:06;26.00;42.60
24730;DHT22;12832;52.392;13.066;2022-09-21T11:27:48;26.00;42.60
24730;DHT22;12832;52.392;13.066;2022-09-21T11:30:21;26.00;42.60
24730;DHT22;12832;52.392;13.066;2022-09-21T11:33:18;26.00;42.70
24730;DHT22;12832;52.392;13.066;2022-09-21T11:38:51;26.00;42.60
24730;DHT22;12832;52.392;13.066;2022-09-21T11:44:15;26.00;42.40
24730;DHT22;12832;52.392;13.066;2022-09-21T11:46:56;26.00;42.30
24730;DHT22;12832;52.392;13.066;2022-09-21T11:49:49;26.00;42.30
24730;DHT22;12832;52.392;13.066;2022-09-21T11:58:36;26.00;42.40
24730;DHT22;12832;52.392;13.066;2022-09-21T12:04:11;26.00;42.30
24730;DHT22;12832;52.392;13.066;2022-09-21T12:10:16;26.00;42.20
24730;DHT22;12832;52.392;13.066;2022-09-21T12:13:06;26.00;42.20
24730;DHT22;12832;52.392;13.066;2022-09-21T12:18:59;26.00;42.20
24730;DHT22;12832;52.392;13.066;2022-09-21T12:21:51;26.00;42.20
24730;DHT22;12832;52.392;13.066;2022-09-21T12:24:41;26.00;42.10
24730;DHT22;12832;52.392;13.066;2022-09-21T12:27:33;26.00;42.10
24730;DHT22;12832;52.392;13.066;2022-09-21T12:30:14;26.00;42.00
24730;DHT22;12832;52.392;13.066;2022-09-21T12:33:14;26.00;42.00
24730;DHT22;12832;52.392;13.066;2022-09-21T12:36:49;26.00;42.00
24730;DHT22;12832;52.392;13.066;2022-09-21T12:39:36;26.00;42.00
24730;DHT22;12832;52.392;13.066;2022-09-21T12:42:34;26.00;42.00
24730;DHT22;12832;52.392;13.066;2022-09-21T12:45:37;26.00;41.90
24730;DHT22;12832;52.392;13.066;2022-09-21T12:48:36;26.00;41.90
24730;DHT22;12832;52.392;13.066;2022-09-21T12:51:16;26.00;41.90
24730;DHT22;12832;52.392;13.066;2022-09-21T12:53:58;26.00;41.90
24730;DHT22;12832;52.392;13.066;2022-09-21T12:56:43;26.00;41.90
24730;DHT22;12832;52.392;13.066;2022-09-21T13:02:20;26.00;41.80
24730;DHT22;12832;52.392;13.066;2022-09-21T13:08:18;26.00;41.80
24730;DHT22;12832;52.392;13.066;2022-09-21T13:11:07;26.00;41.70
24730;DHT22;12832;52.392;13.066;2022-09-21T13:13:43;26.00;41.60
24730;DHT22;12832;52.392;13.066;2022-09-21T13:16:27;26.00;41.70
24730;DHT22;12832;52.392;13.066;2022-09-21T13:19:20;26.00;41.70
24730;DHT22;12832;52.392;13.066;2022-09-21T13:30:40;26.00;41.40
24730;DHT22;12832;52.392;13.066;2022-09-21T13:36:09;26.00;41.40
24730;DHT22;12832;52.392;13.066;2022-09-21T13:38:56;26.00;41.70
24730;DHT22;12832;52.392;13.066;2022-09-21T13:41:27;26.00;41.50
24730;DHT22;12832;52.392;13.066;2022-09-21T13:44:40;26.00;41.30
24730;DHT22;12832;52.392;13.066;2022-09-21T13:47:11;26.00;41.20
24730;DHT22;12832;52.392;13.066;2022-09-21T13:49:50;26.00;41.20
24730;DHT22;12832;52.392;13.066;2022-09-21T13:58:26;25.90;40.90
24730;DHT22;12832;52.392;13.066;2022-09-21T14:01:16;25.90;40.80
24730;DHT22;12832;52.392;13.066;2022-09-21T14:04:23;26.00;40.90
24730;DHT22;12832;52.392;13.066;2022-09-21T14:06:56;26.00;40.90
24730;DHT22;12832;52.392;13.066;2022-09-21T14:10:07;25.90;40.70
24730;DHT22;12832;52.392;13.066;2022-09-21T14:12:37;26.00;40.80
24730;DHT22;12832;52.392;13.066;2022-09-21T14:21:21;25.90;40.60
24730;DHT22;12832;52.392;13.066;2022-09-21T14:26:59;25.90;40.50
24730;DHT22;12832;52.392;13.066;2022-09-21T14:29:51;25.90;40.50
24730;DHT22;12832;52.392;13.066;2022-09-21T14:35:30;25.90;40.40
24730;DHT22;12832;52.392;13.066;2022-09-21T14:38:19;25.90;40.40
24730;DHT22;12832;52.392;13.066;2022-09-21T14:40:51;25.90;40.40
24730;DHT22;12832;52.392;13.066;2022-09-21T14:43:28;25.90;40.30
24730;DHT22;12832;52.392;13.066;2022-09-21T14:46:12;25.90;40.20
24730;DHT22;12832;52.392;13.066;2022-09-21T14:55:03;25.90;40.20
24730;DHT22;12832;52.392;13.066;2022-09-21T15:00:45;25.90;40.20
24730;DHT22;12832;52.392;13.066;2022-09-21T15:06:26;25.90;40.10
24730;DHT22;12832;52.392;13.066;2022-09-21T15:12:25;25.90;40.10
24730;DHT22;12832;52.392;13.066;2022-09-21T15:15:30;25.90;40.10
24730;DHT22;12832;52.392;13.066;2022-09-21T15:18:00;25.90;40.00
24730;DHT22;12832;52.392;13.066;2022-09-21T15:20:34;25.90;39.90
24730;DHT22;12832;52.392;13.066;2022-09-21T15:23:18;25.90;40.00
24730;DHT22;12832;52.392;13.066;2022-09-21T15:26:17;25.90;39.80
24730;DHT22;12832;52.392;13.066;2022-09-21T15:29:18;25.90;39.80
24730;DHT22;12832;52.392;13.066;2022-09-21T15:31:46;25.80;39.80
24730;DHT22;12832;52.392;13.066;2022-09-21T15:34:16;25.90;39.80
24730;DHT22;12832;52.392;13.066;2022-09-21T15:37:11;25.90;39.70
24730;DHT22;12832;52.392;13.066;2022-09-21T15:39:42;25.90;39.80
24730;DHT22;12832;52.392;13.066;2022-09-21T15:42:16;25.80;39.60
24730;DHT22;12832;52.392;13.066;2022-09-21T15:45:15;25.90;39.70
24730;DHT22;12832;52.392;13.066;2022-09-21T15:47:48;25.90;39.70
24730;DHT22;12832;52.392;13.066;2022-09-21T15:50:19;25.90;39.70
24730;DHT22;12832;52.392;13.066;2022-09-21T15:52:58;25.90;39.70
24730;DHT22;12832;52.392;13.066;2022-09-21T15:55:31;25.80;39.50
24730;DHT22;12832;52.392;13.066;2022-09-21T15:58:05;25.80;39.50
24730;DHT22;12832;52.392;13.066;2022-09-21T16:00:51;25.80;40.10
24730;DHT22;12832;52.392;13.066;2022-09-21T16:03:21;25.80;39.50
24730;DHT22;12832;52.392;13.066;2022-09-21T16:05:54;25.80;39.50
24730;DHT22;12832;52.392;13.066;2022-09-21T16:08:33;25.80;39.50
24730;DHT22;12832;52.392;13.066;2022-09-21T16:14:09;25.80;39.50
24730;DHT22;12832;52.392;13.066;2022-09-21T16:24:59;25.80;39.50
24730;DHT22;12832;52.392;13.066;2022-09-21T16:27:38;25.80;39.50
24730;DHT22;12832;52.392;13.066;2022-09-21T16:33:35;25.80;39.50
24730;DHT22;12832;52.392;13.066;2022-09-21T16:38:56;25.80;39.40
24730;DHT22;12832;52.392;13.066;2022-09-21T16:41:39;25.80;39.40
24730;DHT22;12832;52.392;13.066;2022-09-21T16:44:37;25.80;39.40
24730;DHT22;12832;52.392;13.066;2022-09-21T16:47:26;25.80;39.40
24730;DHT22;12832;52.392;13.066;2022-09-21T16:49:58;25.80;39.30
24730;DHT22;12832;52.392;13.066;2022-09-21T16:52:32;25.80;39.30
24730;DHT22;12832;52.392;13.066;2022-09-21T16:55:06;25.80;39.30
24730;DHT22;12832;52.392;13.066;2022-09-21T16:57:41;25.80;39.20
24730;DHT22;12832;52.392;13.066;2022-09-21T17:00:12;25.80;39.20
24730;DHT22;12832;52.392;13.066;2022-09-21T17:02:46;25.80;39.20
24730;DHT22;12832;52.392;13.066;2022-09-21T17:05:29;25.90;39.90
24730;DHT22;12832;52.392;13.066;2022-09-21T17:08:10;25.90;39.90
24730;DHT22;12832;52.392;13.066;2022-09-21T17:10:43;25.90;39.90
24730;DHT22;12832;52.392;13.066;2022-09-21T17:13:18;26.00;40.00
24730;DHT22;12832;52.392;13.066;2022-09-21T17:15:52;26.00;40.10
24730;DHT22;12832;52.392;13.066;2022-09-21T17:18:23;26.00;40.00
24730;DHT22;12832;52.392;13.066;2022-09-21T17:21:02;26.00;40.00
24730;DHT22;12832;52.392;13.066;2022-09-21T17:23:30;26.00;40.10
24730;DHT22;12832;52.392;13.066;2022-09-21T17:26:03;26.00;40.10
24730;DHT22;12832;52.392;13.066;2022-09-21T17:28:50;26.00;40.10
24730;DHT22;12832;52.392;13.066;2022-09-21T17:31:24;26.00;40.10
24730;DHT22;12832;52.392;13.066;2022-09-21T17:33:50;26.00;40.20
24730;DHT22;12832;52.392;13.066;2022-09-21T17:36:27;26.10;40.20
24730;DHT22;12832;52.392;13.066;2022-09-21T17:38:58;26.00;40.10
24730;DHT22;12832;52.392;13.066;2022-09-21T17:41:41;26.10;40.20
24730;DHT22;12832;52.392;13.066;2022-09-21T17:47:23;26.10;40.20
24730;DHT22;12832;52.392;13.066;2022-09-21T17:53:01;26.10;40.20
24730;DHT22;12832;52.392;13.066;2022-09-21T17:55:56;26.10;40.30
24730;DHT22;12832;52.392;13.066;2022-09-21T17:58:50;26.10;40.30
24730;DHT22;12832;52.392;13.066;2022-09-21T18:01:36;26.10;40.20
24730;DHT22;12832;52.392;13.066;2022-09-21T18:04:13;26.20;40.40
24730;DHT22;12832;52.392;13.066;2022-09-21T18:06:48;26.20;40.30
24730;DHT22;12832;52.392;13.066;2022-09-21T18:09:17;26.20;40.30
24730;DHT22;12832;52.392;13.066;2022-09-21T18:21:48;26.20;40.40
24730;DHT22;12832;52.392;13.066;2022-09-21T18:24:29;26.20;40.30
24730;DHT22;12832;52.392;13.066;2022-09-21T18:27:02;26.20;40.40
24730;DHT22;12832;52.392;13.066;2022-09-21T18:29:36;26.20;41.10
24730;DHT22;12832;52.392;13.066;2022-09-21T18:38:10;26.20;40.30
24730;DHT22;12832;52.392;13.066;2022-09-21T18:50:09;26.20;40.40
24730;DHT22;12832;52.392;13.066;2022-09-21T18:53:25;26.30;40.40
24730;DHT22;12832;52.392;13.066;2022-09-21T18:55:49;26.20;40.40
24730;DHT22;12832;52.392;13.066;2022-09-21T18:58:21;26.30;40.40
24730;DHT22;12832;52.392;13.066;2022-09-21T19:00:55;26.20;40.40
24730;DHT22;12832;52.392;13.066;2022-09-21T19:03:25;26.30;40.40
24730;DHT22;12832;52.392;13.066;2022-09-21T19:11:41;26.30;40.50
24730;DHT22;12832;52.392;13.066;2022-09-21T19:14:35;26.30;40.50
24730;DHT22;12832;52.392;13.066;2022-09-21T19:17:15;26.30;40.40
24730;DHT22;12832;52.392;13.066;2022-09-21T19:26:15;26.30;40.50
24730;DHT22;12832;52.392;13.066;2022-09-21T19:29:23;26.30;40.50
24730;DHT22;12832;52.392;13.066;2022-09-21T19:32:00;26.30;40.60
24730;DHT22;12832;52.392;13.066;2022-09-21T19:34:39;26.30;40.50
24730;DHT22;12832;52.392;13.066;2022-09-21T19:37:13;26.30;40.50
24730;DHT22;12832;52.392;13.066;2022-09-21T19:39:42;26.30;40.50